Dominion City, Canada
Current Conditions -  °F | °C
As of 4:53 PM on Wednesday 22 Oct 2014 (Local Time) from KHCO Reporting Station
Scattered Clouds Scattered Clouds  
Wind Chill: 61°   Ceiling: Unl
Heat Index: 61°   Visibility: 10mi
Dew Point: 48°   Wind: 17mph
Humidity: 63%   Direction: 180°S
Pressure: 29.78"   Gusts: 22mph
Location:  49.13°N, 97.15°W
Report Text: KHCO 222153Z AUTO 18015G19KT 10SM SCT090 16/09 A2978 RMK AO2
Loading
Personal Weather Stations






























Interactive Weather Map
Tropical Storm Tracking
New forecast layout! Learn more

10-Day Weather Forecast

Advertisements
Track Severe Weather on mobile